sensor_id;sensor_type;location;lat;lon;timestamp;P1;durP1;ratioP1;P2;durP2;ratioP2
28455;SDS011;15682;56.742;38.866;2023-02-28T00:00:29;10.5;;;5.8;;
28455;SDS011;15682;56.742;38.866;2023-02-28T00:02:29;9.3;;;5.3;;
28455;SDS011;15682;56.742;38.866;2023-02-28T00:04:29;10.1;;;5.4;;
28455;SDS011;15682;56.742;38.866;2023-02-28T00:06:29;9.4;;;5.2;;
28455;SDS011;15682;56.742;38.866;2023-02-28T00:08:28;9.2;;;4.9;;
28455;SDS011;15682;56.742;38.866;2023-02-28T00:10:29;9.4;;;4.8;;
28455;SDS011;15682;56.742;38.866;2023-02-28T00:12:28;11.6;;;5.7;;
28455;SDS011;15682;56.742;38.866;2023-02-28T00:14:29;8.8;;;5.2;;
28455;SDS011;15682;56.742;38.866;2023-02-28T00:16:27;7.7;;;4.7;;
28455;SDS011;15682;56.742;38.866;2023-02-28T00:18:27;9.2;;;4.7;;
28455;SDS011;15682;56.742;38.866;2023-02-28T00:20:27;9.1;;;4.8;;
28455;SDS011;15682;56.742;38.866;2023-02-28T00:22:27;9.6;;;4.8;;
28455;SDS011;15682;56.742;38.866;2023-02-28T00:24:26;7.9;;;4.7;;
28455;SDS011;15682;56.742;38.866;2023-02-28T00:26:26;7.8;;;4.4;;
28455;SDS011;15682;56.742;38.866;2023-02-28T00:28:26;8.4;;;4.6;;
28455;SDS011;15682;56.742;38.866;2023-02-28T00:30:25;9.6;;;4.8;;
28455;SDS011;15682;56.742;38.866;2023-02-28T00:32:25;8.1;;;4.4;;
28455;SDS011;15682;56.742;38.866;2023-02-28T00:34:25;9.2;;;4.5;;
28455;SDS011;15682;56.742;38.866;2023-02-28T00:36:25;8.0;;;3.9;;
28455;SDS011;15682;56.742;38.866;2023-02-28T00:38:24;7.3;;;4.2;;
28455;SDS011;15682;56.742;38.866;2023-02-28T00:40:24;8.1;;;4.3;;
28455;SDS011;15682;56.742;38.866;2023-02-28T00:42:24;7.8;;;4.4;;
28455;SDS011;15682;56.742;38.866;2023-02-28T00:44:24;8.8;;;4.9;;
28455;SDS011;15682;56.742;38.866;2023-02-28T00:46:23;9.4;;;4.4;;
28455;SDS011;15682;56.742;38.866;2023-02-28T00:48:23;8.2;;;4.4;;
28455;SDS011;15682;56.742;38.866;2023-02-28T00:50:23;7.1;;;4.2;;
28455;SDS011;15682;56.742;38.866;2023-02-28T00:52:23;6.9;;;4.2;;
28455;SDS011;15682;56.742;38.866;2023-02-28T00:54:22;7.0;;;4.0;;
28455;SDS011;15682;56.742;38.866;2023-02-28T00:56:22;7.5;;;4.2;;
28455;SDS011;15682;56.742;38.866;2023-02-28T00:58:22;7.1;;;4.1;;
28455;SDS011;15682;56.742;38.866;2023-02-28T01:00:22;8.7;;;4.2;;
28455;SDS011;15682;56.742;38.866;2023-02-28T01:02:21;8.4;;;4.1;;
28455;SDS011;15682;56.742;38.866;2023-02-28T01:04:21;6.7;;;3.8;;
28455;SDS011;15682;56.742;38.866;2023-02-28T01:06:21;8.3;;;3.8;;
28455;SDS011;15682;56.742;38.866;2023-02-28T01:08:21;6.9;;;3.9;;
28455;SDS011;15682;56.742;38.866;2023-02-28T01:10:20;7.0;;;4.1;;
28455;SDS011;15682;56.742;38.866;2023-02-28T01:12:20;7.1;;;3.8;;
28455;SDS011;15682;56.742;38.866;2023-02-28T01:14:20;7.3;;;3.9;;
28455;SDS011;15682;56.742;38.866;2023-02-28T01:16:19;6.2;;;3.7;;
28455;SDS011;15682;56.742;38.866;2023-02-28T01:18:20;6.6;;;3.5;;
28455;SDS011;15682;56.742;38.866;2023-02-28T01:20:19;5.5;;;3.6;;
28455;SDS011;15682;56.742;38.866;2023-02-28T01:22:19;5.6;;;3.3;;
28455;SDS011;15682;56.742;38.866;2023-02-28T01:24:18;7.2;;;3.6;;
28455;SDS011;15682;56.742;38.866;2023-02-28T01:26:19;6.2;;;3.6;;
28455;SDS011;15682;56.742;38.866;2023-02-28T01:28:18;5.9;;;3.6;;
28455;SDS011;15682;56.742;38.866;2023-02-28T01:30:18;6.7;;;3.5;;
28455;SDS011;15682;56.742;38.866;2023-02-28T01:32:17;6.7;;;3.8;;
28455;SDS011;15682;56.742;38.866;2023-02-28T01:34:17;7.7;;;3.6;;
28455;SDS011;15682;56.742;38.866;2023-02-28T01:36:18;6.6;;;3.8;;
28455;SDS011;15682;56.742;38.866;2023-02-28T01:38:17;5.7;;;3.6;;
28455;SDS011;15682;56.742;38.866;2023-02-28T01:40:17;5.1;;;3.3;;
28455;SDS011;15682;56.742;38.866;2023-02-28T01:42:16;6.7;;;3.6;;
28455;SDS011;15682;56.742;38.866;2023-02-28T01:46:16;6.7;;;3.5;;
28455;SDS011;15682;56.742;38.866;2023-02-28T01:48:15;7.6;;;3.8;;
28455;SDS011;15682;56.742;38.866;2023-02-28T01:50:16;5.2;;;3.5;;
28455;SDS011;15682;56.742;38.866;2023-02-28T01:52:15;6.9;;;3.6;;
28455;SDS011;15682;56.742;38.866;2023-02-28T01:54:15;7.6;;;3.5;;
28455;SDS011;15682;56.742;38.866;2023-02-28T01:56:16;6.3;;;3.3;;
28455;SDS011;15682;56.742;38.866;2023-02-28T01:58:14;5.6;;;3.4;;
28455;SDS011;15682;56.742;38.866;2023-02-28T02:00:15;7.0;;;3.5;;
28455;SDS011;15682;56.742;38.866;2023-02-28T02:02:14;5.8;;;3.2;;
28455;SDS011;15682;56.742;38.866;2023-02-28T02:04:13;7.2;;;3.6;;
28455;SDS011;15682;56.742;38.866;2023-02-28T02:06:13;6.9;;;3.7;;
28455;SDS011;15682;56.742;38.866;2023-02-28T02:08:14;5.8;;;3.5;;
28455;SDS011;15682;56.742;38.866;2023-02-28T02:10:14;6.2;;;3.7;;
28455;SDS011;15682;56.742;38.866;2023-02-28T02:12:15;6.1;;;3.5;;
28455;SDS011;15682;56.742;38.866;2023-02-28T02:14:20;6.3;;;3.2;;
28455;SDS011;15682;56.742;38.866;2023-02-28T02:16:16;6.5;;;3.4;;
28455;SDS011;15682;56.742;38.866;2023-02-28T02:18:14;7.0;;;3.1;;
28455;SDS011;15682;56.742;38.866;2023-02-28T02:22:17;6.5;;;3.1;;
28455;SDS011;15682;56.742;38.866;2023-02-28T02:26:16;6.9;;;3.1;;
28455;SDS011;15682;56.742;38.866;2023-02-28T02:28:19;5.5;;;3.3;;
28455;SDS011;15682;56.742;38.866;2023-02-28T02:30:16;7.6;;;3.4;;
28455;SDS011;15682;56.742;38.866;2023-02-28T02:32:14;4.8;;;3.3;;
28455;SDS011;15682;56.742;38.866;2023-02-28T02:34:17;7.1;;;3.6;;
28455;SDS011;15682;56.742;38.866;2023-02-28T02:36:09;5.6;;;3.4;;
28455;SDS011;15682;56.742;38.866;2023-02-28T02:38:10;4.8;;;3.1;;
28455;SDS011;15682;56.742;38.866;2023-02-28T02:40:10;5.9;;;3.3;;
28455;SDS011;15682;56.742;38.866;2023-02-28T02:42:11;6.3;;;3.6;;
28455;SDS011;15682;56.742;38.866;2023-02-28T02:44:10;5.6;;;3.2;;
28455;SDS011;15682;56.742;38.866;2023-02-28T02:46:09;5.1;;;3.4;;
28455;SDS011;15682;56.742;38.866;2023-02-28T02:48:09;6.4;;;3.4;;
28455;SDS011;15682;56.742;38.866;2023-02-28T02:50:11;6.9;;;3.6;;
28455;SDS011;15682;56.742;38.866;2023-02-28T02:52:08;5.8;;;3.3;;
28455;SDS011;15682;56.742;38.866;2023-02-28T02:54:08;7.0;;;4.1;;
28455;SDS011;15682;56.742;38.866;2023-02-28T02:56:07;5.2;;;3.4;;
28455;SDS011;15682;56.742;38.866;2023-02-28T02:58:07;6.6;;;3.6;;
28455;SDS011;15682;56.742;38.866;2023-02-28T03:00:07;7.6;;;4.0;;
28455;SDS011;15682;56.742;38.866;2023-02-28T03:02:07;6.0;;;3.3;;
28455;SDS011;15682;56.742;38.866;2023-02-28T03:04:07;6.1;;;3.6;;
28455;SDS011;15682;56.742;38.866;2023-02-28T03:06:05;7.6;;;3.7;;
28455;SDS011;15682;56.742;38.866;2023-02-28T03:08:05;7.4;;;4.2;;
28455;SDS011;15682;56.742;38.866;2023-02-28T03:12:05;7.2;;;3.9;;
28455;SDS011;15682;56.742;38.866;2023-02-28T03:14:08;9.3;;;3.4;;
28455;SDS011;15682;56.742;38.866;2023-02-28T03:16:09;6.6;;;3.7;;
28455;SDS011;15682;56.742;38.866;2023-02-28T03:18:04;7.2;;;4.0;;
28455;SDS011;15682;56.742;38.866;2023-02-28T03:20:07;7.3;;;3.5;;
28455;SDS011;15682;56.742;38.866;2023-02-28T03:22:09;5.9;;;3.3;;
28455;SDS011;15682;56.742;38.866;2023-02-28T03:24:04;7.1;;;3.3;;
28455;SDS011;15682;56.742;38.866;2023-02-28T03:26:04;6.2;;;3.4;;
28455;SDS011;15682;56.742;38.866;2023-02-28T03:28:04;6.4;;;3.4;;
28455;SDS011;15682;56.742;38.866;2023-02-28T03:30:03;5.9;;;3.4;;
28455;SDS011;15682;56.742;38.866;2023-02-28T03:32:04;6.1;;;3.4;;
28455;SDS011;15682;56.742;38.866;2023-02-28T03:34:03;6.4;;;3.2;;
28455;SDS011;15682;56.742;38.866;2023-02-28T03:36:02;7.0;;;3.3;;
28455;SDS011;15682;56.742;38.866;2023-02-28T03:38:03;6.4;;;3.4;;
28455;SDS011;15682;56.742;38.866;2023-02-28T03:40:02;5.6;;;3.1;;
28455;SDS011;15682;56.742;38.866;2023-02-28T03:42:02;4.7;;;2.8;;
28455;SDS011;15682;56.742;38.866;2023-02-28T03:44:02;7.5;;;3.4;;
28455;SDS011;15682;56.742;38.866;2023-02-28T03:46:00;5.6;;;3.2;;
28455;SDS011;15682;56.742;38.866;2023-02-28T03:48:01;5.0;;;3.1;;
28455;SDS011;15682;56.742;38.866;2023-02-28T03:50:01;8.4;;;3.2;;
28455;SDS011;15682;56.742;38.866;2023-02-28T03:52:00;5.1;;;2.8;;
28455;SDS011;15682;56.742;38.866;2023-02-28T03:54:01;5.2;;;3.1;;
28455;SDS011;15682;56.742;38.866;2023-02-28T03:55:59;5.8;;;2.8;;
28455;SDS011;15682;56.742;38.866;2023-02-28T03:58:01;5.3;;;3.2;;
28455;SDS011;15682;56.742;38.866;2023-02-28T03:59:59;5.3;;;3.1;;
28455;SDS011;15682;56.742;38.866;2023-02-28T04:01:58;6.2;;;3.1;;
28455;SDS011;15682;56.742;38.866;2023-02-28T04:03:58;5.5;;;3.1;;
28455;SDS011;15682;56.742;38.866;2023-02-28T04:05:58;5.9;;;3.1;;
28455;SDS011;15682;56.742;38.866;2023-02-28T04:08:03;5.2;;;2.9;;
28455;SDS011;15682;56.742;38.866;2023-02-28T04:09:57;5.4;;;2.9;;
28455;SDS011;15682;56.742;38.866;2023-02-28T04:11:57;6.7;;;3.0;;
28455;SDS011;15682;56.742;38.866;2023-02-28T04:13:57;4.7;;;2.5;;
28455;SDS011;15682;56.742;38.866;2023-02-28T04:15:56;5.9;;;2.8;;
28455;SDS011;15682;56.742;38.866;2023-02-28T04:17:56;5.2;;;2.9;;
28455;SDS011;15682;56.742;38.866;2023-02-28T04:19:56;6.4;;;3.0;;
28455;SDS011;15682;56.742;38.866;2023-02-28T04:21:56;8.2;;;2.8;;
28455;SDS011;15682;56.742;38.866;2023-02-28T04:23:55;4.6;;;2.8;;
28455;SDS011;15682;56.742;38.866;2023-02-28T04:25:55;4.3;;;2.4;;
28455;SDS011;15682;56.742;38.866;2023-02-28T04:27:55;4.7;;;2.5;;
28455;SDS011;15682;56.742;38.866;2023-02-28T04:29:55;5.6;;;3.3;;
28455;SDS011;15682;56.742;38.866;2023-02-28T04:31:55;5.0;;;2.7;;
28455;SDS011;15682;56.742;38.866;2023-02-28T04:33:54;6.0;;;2.9;;
28455;SDS011;15682;56.742;38.866;2023-02-28T04:36:02;4.7;;;2.7;;
28455;SDS011;15682;56.742;38.866;2023-02-28T04:37:53;7.2;;;3.5;;
28455;SDS011;15682;56.742;38.866;2023-02-28T04:39:53;5.4;;;2.7;;
28455;SDS011;15682;56.742;38.866;2023-02-28T04:41:53;6.4;;;2.8;;
28455;SDS011;15682;56.742;38.866;2023-02-28T04:43:53;12.9;;;3.6;;
28455;SDS011;15682;56.742;38.866;2023-02-28T04:45:52;4.8;;;2.4;;
28455;SDS011;15682;56.742;38.866;2023-02-28T04:47:52;8.9;;;4.9;;
28455;SDS011;15682;56.742;38.866;2023-02-28T04:49:52;6.8;;;2.9;;
28455;SDS011;15682;56.742;38.866;2023-02-28T04:51:52;6.2;;;3.1;;
28455;SDS011;15682;56.742;38.866;2023-02-28T04:53:52;7.0;;;3.0;;
28455;SDS011;15682;56.742;38.866;2023-02-28T04:55:51;5.0;;;2.5;;
28455;SDS011;15682;56.742;38.866;2023-02-28T04:57:51;14.8;;;3.7;;
28455;SDS011;15682;56.742;38.866;2023-02-28T04:59:51;6.3;;;2.8;;
28455;SDS011;15682;56.742;38.866;2023-02-28T05:01:51;5.3;;;2.4;;
28455;SDS011;15682;56.742;38.866;2023-02-28T05:03:51;7.7;;;2.4;;
28455;SDS011;15682;56.742;38.866;2023-02-28T05:05:50;6.2;;;2.4;;
28455;SDS011;15682;56.742;38.866;2023-02-28T05:07:50;6.2;;;2.7;;
28455;SDS011;15682;56.742;38.866;2023-02-28T05:09:50;3.3;;;2.0;;
28455;SDS011;15682;56.742;38.866;2023-02-28T05:11:49;8.5;;;2.7;;
28455;SDS011;15682;56.742;38.866;2023-02-28T05:13:50;5.6;;;2.7;;
28455;SDS011;15682;56.742;38.866;2023-02-28T05:15:49;4.2;;;2.5;;
28455;SDS011;15682;56.742;38.866;2023-02-28T05:17:49;3.9;;;2.2;;
28455;SDS011;15682;56.742;38.866;2023-02-28T05:19:49;3.9;;;2.3;;
28455;SDS011;15682;56.742;38.866;2023-02-28T05:21:49;4.5;;;2.5;;
28455;SDS011;15682;56.742;38.866;2023-02-28T05:23:48;4.2;;;2.3;;
28455;SDS011;15682;56.742;38.866;2023-02-28T05:25:48;7.2;;;2.8;;
28455;SDS011;15682;56.742;38.866;2023-02-28T05:27:48;4.9;;;2.4;;
28455;SDS011;15682;56.742;38.866;2023-02-28T05:29:48;7.1;;;2.8;;
28455;SDS011;15682;56.742;38.866;2023-02-28T05:31:47;4.1;;;2.3;;
28455;SDS011;15682;56.742;38.866;2023-02-28T05:33:47;6.1;;;2.6;;
28455;SDS011;15682;56.742;38.866;2023-02-28T05:35:47;4.7;;;2.5;;
28455;SDS011;15682;56.742;38.866;2023-02-28T05:37:47;10.8;;;2.9;;
28455;SDS011;15682;56.742;38.866;2023-02-28T05:39:47;10.8;;;3.0;;
28455;SDS011;15682;56.742;38.866;2023-02-28T05:41:46;9.6;;;3.6;;
28455;SDS011;15682;56.742;38.866;2023-02-28T05:43:46;5.0;;;2.4;;
28455;SDS011;15682;56.742;38.866;2023-02-28T05:45:46;5.0;;;2.5;;
28455;SDS011;15682;56.742;38.866;2023-02-28T05:47:46;6.4;;;2.5;;
28455;SDS011;15682;56.742;38.866;2023-02-28T05:49:46;6.1;;;2.7;;
28455;SDS011;15682;56.742;38.866;2023-02-28T05:51:46;6.8;;;2.4;;
28455;SDS011;15682;56.742;38.866;2023-02-28T05:53:45;4.1;;;2.6;;
28455;SDS011;15682;56.742;38.866;2023-02-28T05:55:45;6.1;;;2.8;;
28455;SDS011;15682;56.742;38.866;2023-02-28T05:57:45;12.2;;;3.9;;
28455;SDS011;15682;56.742;38.866;2023-02-28T05:59:45;5.3;;;2.4;;
28455;SDS011;15682;56.742;38.866;2023-02-28T06:01:46;5.8;;;2.9;;
28455;SDS011;15682;56.742;38.866;2023-02-28T06:03:44;4.8;;;2.7;;
28455;SDS011;15682;56.742;38.866;2023-02-28T06:05:44;9.0;;;3.0;;
28455;SDS011;15682;56.742;38.866;2023-02-28T06:07:44;5.7;;;3.0;;
28455;SDS011;15682;56.742;38.866;2023-02-28T06:09:44;4.5;;;2.8;;
28455;SDS011;15682;56.742;38.866;2023-02-28T06:11:43;6.3;;;2.8;;
28455;SDS011;15682;56.742;38.866;2023-02-28T06:13:43;5.0;;;2.7;;
28455;SDS011;15682;56.742;38.866;2023-02-28T06:15:43;4.3;;;2.6;;
28455;SDS011;15682;56.742;38.866;2023-02-28T06:17:43;5.4;;;3.0;;
28455;SDS011;15682;56.742;38.866;2023-02-28T06:19:43;4.7;;;2.7;;
28455;SDS011;15682;56.742;38.866;2023-02-28T06:21:43;8.9;;;2.7;;
28455;SDS011;15682;56.742;38.866;2023-02-28T06:23:42;4.6;;;2.6;;
28455;SDS011;15682;56.742;38.866;2023-02-28T06:25:44;5.5;;;2.6;;
28455;SDS011;15682;56.742;38.866;2023-02-28T06:27:42;15.9;;;7.1;;
28455;SDS011;15682;56.742;38.866;2023-02-28T06:29:42;6.3;;;2.8;;
28455;SDS011;15682;56.742;38.866;2023-02-28T06:31:41;6.0;;;2.9;;
28455;SDS011;15682;56.742;38.866;2023-02-28T06:33:42;6.5;;;3.7;;
28455;SDS011;15682;56.742;38.866;2023-02-28T06:35:43;5.6;;;2.5;;
28455;SDS011;15682;56.742;38.866;2023-02-28T06:37:41;9.4;;;2.7;;
28455;SDS011;15682;56.742;38.866;2023-02-28T06:39:41;5.2;;;2.6;;
28455;SDS011;15682;56.742;38.866;2023-02-28T06:41:40;4.3;;;2.5;;
28455;SDS011;15682;56.742;38.866;2023-02-28T06:43:41;6.5;;;2.9;;
28455;SDS011;15682;56.742;38.866;2023-02-28T06:45:41;4.4;;;2.5;;
28455;SDS011;15682;56.742;38.866;2023-02-28T06:47:40;6.0;;;2.4;;
28455;SDS011;15682;56.742;38.866;2023-02-28T06:49:40;5.2;;;2.8;;
28455;SDS011;15682;56.742;38.866;2023-02-28T06:51:40;3.6;;;2.4;;
28455;SDS011;15682;56.742;38.866;2023-02-28T06:53:39;5.0;;;2.5;;
28455;SDS011;15682;56.742;38.866;2023-02-28T06:55:39;4.4;;;2.4;;
28455;SDS011;15682;56.742;38.866;2023-02-28T06:57:39;4.6;;;2.3;;
28455;SDS011;15682;56.742;38.866;2023-02-28T06:59:39;6.6;;;2.7;;
28455;SDS011;15682;56.742;38.866;2023-02-28T07:01:39;7.1;;;2.9;;
28455;SDS011;15682;56.742;38.866;2023-02-28T07:03:38;9.5;;;2.9;;
28455;SDS011;15682;56.742;38.866;2023-02-28T07:05:39;11.1;;;2.4;;
28455;SDS011;15682;56.742;38.866;2023-02-28T07:07:38;6.5;;;2.9;;
28455;SDS011;15682;56.742;38.866;2023-02-28T07:09:38;3.9;;;2.1;;
28455;SDS011;15682;56.742;38.866;2023-02-28T07:11:38;4.9;;;2.8;;
28455;SDS011;15682;56.742;38.866;2023-02-28T07:13:37;5.3;;;2.7;;
28455;SDS011;15682;56.742;38.866;2023-02-28T07:15:38;5.0;;;2.6;;
28455;SDS011;15682;56.742;38.866;2023-02-28T07:17:37;5.4;;;2.7;;
28455;SDS011;15682;56.742;38.866;2023-02-28T07:19:37;5.9;;;2.8;;
28455;SDS011;15682;56.742;38.866;2023-02-28T07:21:37;6.3;;;2.7;;
28455;SDS011;15682;56.742;38.866;2023-02-28T07:23:37;5.8;;;2.9;;
28455;SDS011;15682;56.742;38.866;2023-02-28T07:25:36;8.5;;;2.7;;
28455;SDS011;15682;56.742;38.866;2023-02-28T07:27:36;6.3;;;2.9;;
28455;SDS011;15682;56.742;38.866;2023-02-28T07:29:36;6.9;;;2.9;;
28455;SDS011;15682;56.742;38.866;2023-02-28T07:31:36;3.9;;;2.5;;
28455;SDS011;15682;56.742;38.866;2023-02-28T07:33:36;5.3;;;2.9;;
28455;SDS011;15682;56.742;38.866;2023-02-28T07:35:36;9.2;;;3.2;;
28455;SDS011;15682;56.742;38.866;2023-02-28T07:37:35;6.8;;;2.5;;
28455;SDS011;15682;56.742;38.866;2023-02-28T07:39:35;10.9;;;3.4;;
28455;SDS011;15682;56.742;38.866;2023-02-28T07:41:35;5.9;;;2.6;;
28455;SDS011;15682;56.742;38.866;2023-02-28T07:43:35;4.0;;;2.4;;
28455;SDS011;15682;56.742;38.866;2023-02-28T07:45:35;5.1;;;2.6;;
28455;SDS011;15682;56.742;38.866;2023-02-28T07:47:35;7.0;;;2.9;;
28455;SDS011;15682;56.742;38.866;2023-02-28T07:49:35;6.0;;;2.8;;
28455;SDS011;15682;56.742;38.866;2023-02-28T07:51:34;4.4;;;2.7;;
28455;SDS011;15682;56.742;38.866;2023-02-28T07:53:34;5.6;;;2.4;;
28455;SDS011;15682;56.742;38.866;2023-02-28T07:55:34;3.7;;;2.4;;
28455;SDS011;15682;56.742;38.866;2023-02-28T07:57:34;9.0;;;2.7;;
28455;SDS011;15682;56.742;38.866;2023-02-28T07:59:34;5.0;;;2.3;;
28455;SDS011;15682;56.742;38.866;2023-02-28T08:01:33;7.4;;;2.5;;
28455;SDS011;15682;56.742;38.866;2023-02-28T08:03:33;6.2;;;2.7;;
28455;SDS011;15682;56.742;38.866;2023-02-28T08:05:37;4.7;;;2.3;;
28455;SDS011;15682;56.742;38.866;2023-02-28T08:07:33;3.9;;;2.3;;
28455;SDS011;15682;56.742;38.866;2023-02-28T08:09:33;7.1;;;2.6;;
28455;SDS011;15682;56.742;38.866;2023-02-28T08:11:33;3.6;;;2.2;;
28455;SDS011;15682;56.742;38.866;2023-02-28T08:13:33;6.6;;;2.9;;
28455;SDS011;15682;56.742;38.866;2023-02-28T08:15:32;4.3;;;2.5;;
28455;SDS011;15682;56.742;38.866;2023-02-28T08:17:32;5.5;;;2.3;;
28455;SDS011;15682;56.742;38.866;2023-02-28T08:19:32;3.7;;;2.2;;
28455;SDS011;15682;56.742;38.866;2023-02-28T08:21:32;4.3;;;2.6;;
28455;SDS011;15682;56.742;38.866;2023-02-28T08:23:32;3.8;;;2.2;;
28455;SDS011;15682;56.742;38.866;2023-02-28T08:25:31;5.0;;;2.4;;
28455;SDS011;15682;56.742;38.866;2023-02-28T08:27:31;6.8;;;2.3;;
28455;SDS011;15682;56.742;38.866;2023-02-28T08:29:31;4.3;;;2.5;;
28455;SDS011;15682;56.742;38.866;2023-02-28T08:31:31;4.7;;;2.4;;
28455;SDS011;15682;56.742;38.866;2023-02-28T08:33:31;5.4;;;2.4;;
28455;SDS011;15682;56.742;38.866;2023-02-28T08:35:31;5.7;;;2.8;;
28455;SDS011;15682;56.742;38.866;2023-02-28T08:37:30;4.8;;;2.5;;
28455;SDS011;15682;56.742;38.866;2023-02-28T08:39:30;4.5;;;2.6;;
28455;SDS011;15682;56.742;38.866;2023-02-28T08:41:30;4.6;;;2.6;;
28455;SDS011;15682;56.742;38.866;2023-02-28T08:43:30;7.0;;;2.6;;
28455;SDS011;15682;56.742;38.866;2023-02-28T08:45:30;6.8;;;2.9;;
28455;SDS011;15682;56.742;38.866;2023-02-28T08:47:30;4.6;;;2.7;;
28455;SDS011;15682;56.742;38.866;2023-02-28T08:49:29;8.2;;;2.9;;
28455;SDS011;15682;56.742;38.866;2023-02-28T08:51:29;4.1;;;2.5;;
28455;SDS011;15682;56.742;38.866;2023-02-28T08:53:29;5.5;;;3.0;;
28455;SDS011;15682;56.742;38.866;2023-02-28T08:55:29;6.4;;;2.9;;
28455;SDS011;15682;56.742;38.866;2023-02-28T08:57:29;7.0;;;2.8;;
28455;SDS011;15682;56.742;38.866;2023-02-28T08:59:29;6.1;;;2.7;;
28455;SDS011;15682;56.742;38.866;2023-02-28T09:01:29;7.6;;;2.8;;
28455;SDS011;15682;56.742;38.866;2023-02-28T09:03:28;5.7;;;2.8;;
28455;SDS011;15682;56.742;38.866;2023-02-28T09:05:28;5.4;;;2.6;;
28455;SDS011;15682;56.742;38.866;2023-02-28T09:07:28;4.0;;;2.3;;
28455;SDS011;15682;56.742;38.866;2023-02-28T09:09:28;4.8;;;2.9;;
28455;SDS011;15682;56.742;38.866;2023-02-28T09:11:28;4.9;;;2.6;;
28455;SDS011;15682;56.742;38.866;2023-02-28T09:13:28;4.6;;;2.5;;
28455;SDS011;15682;56.742;38.866;2023-02-28T09:15:27;4.4;;;2.5;;
28455;SDS011;15682;56.742;38.866;2023-02-28T09:17:27;4.5;;;2.5;;
28455;SDS011;15682;56.742;38.866;2023-02-28T09:19:27;6.5;;;2.7;;
28455;SDS011;15682;56.742;38.866;2023-02-28T09:21:27;3.3;;;2.0;;
28455;SDS011;15682;56.742;38.866;2023-02-28T09:23:27;4.6;;;2.3;;
28455;SDS011;15682;56.742;38.866;2023-02-28T09:25:27;4.5;;;2.2;;
28455;SDS011;15682;56.742;38.866;2023-02-28T09:27:27;4.2;;;2.3;;
28455;SDS011;15682;56.742;38.866;2023-02-28T09:29:26;4.2;;;2.2;;
28455;SDS011;15682;56.742;38.866;2023-02-28T09:31:27;4.8;;;2.3;;
28455;SDS011;15682;56.742;38.866;2023-02-28T09:33:26;8.5;;;2.4;;
28455;SDS011;15682;56.742;38.866;2023-02-28T09:35:26;4.5;;;2.5;;
28455;SDS011;15682;56.742;38.866;2023-02-28T09:37:26;5.7;;;2.6;;
28455;SDS011;15682;56.742;38.866;2023-02-28T09:39:26;16.2;;;3.7;;
28455;SDS011;15682;56.742;38.866;2023-02-28T09:41:26;4.1;;;2.5;;
28455;SDS011;15682;56.742;38.866;2023-02-28T09:43:26;10.3;;;2.8;;
28455;SDS011;15682;56.742;38.866;2023-02-28T09:45:26;8.8;;;2.9;;
28455;SDS011;15682;56.742;38.866;2023-02-28T09:47:27;3.2;;;2.1;;
28455;SDS011;15682;56.742;38.866;2023-02-28T09:49:26;4.3;;;2.4;;
28455;SDS011;15682;56.742;38.866;2023-02-28T09:51:28;6.7;;;2.2;;
28455;SDS011;15682;56.742;38.866;2023-02-28T09:53:26;8.2;;;2.6;;
28455;SDS011;15682;56.742;38.866;2023-02-28T09:55:26;6.2;;;3.1;;
28455;SDS011;15682;56.742;38.866;2023-02-28T09:57:27;7.5;;;2.9;;
28455;SDS011;15682;56.742;38.866;2023-02-28T09:59:29;4.9;;;2.7;;
28455;SDS011;15682;56.742;38.866;2023-02-28T10:01:25;3.8;;;2.5;;
28455;SDS011;15682;56.742;38.866;2023-02-28T10:03:25;7.6;;;2.9;;
28455;SDS011;15682;56.742;38.866;2023-02-28T10:05:24;4.3;;;2.6;;
28455;SDS011;15682;56.742;38.866;2023-02-28T10:07:30;7.0;;;2.7;;
28455;SDS011;15682;56.742;38.866;2023-02-28T10:09:24;4.5;;;2.5;;
28455;SDS011;15682;56.742;38.866;2023-02-28T10:11:23;4.8;;;3.0;;
28455;SDS011;15682;56.742;38.866;2023-02-28T10:13:25;4.9;;;2.3;;
28455;SDS011;15682;56.742;38.866;2023-02-28T10:15:24;9.7;;;3.1;;
28455;SDS011;15682;56.742;38.866;2023-02-28T10:17:23;25.1;;;5.5;;
28455;SDS011;15682;56.742;38.866;2023-02-28T10:19:23;24.0;;;5.1;;
28455;SDS011;15682;56.742;38.866;2023-02-28T10:21:24;6.0;;;2.6;;
28455;SDS011;15682;56.742;38.866;2023-02-28T10:23:24;11.5;;;3.4;;
28455;SDS011;15682;56.742;38.866;2023-02-28T10:25:23;6.1;;;2.8;;
28455;SDS011;15682;56.742;38.866;2023-02-28T10:27:23;5.0;;;2.3;;
28455;SDS011;15682;56.742;38.866;2023-02-28T10:29:22;9.0;;;2.5;;
28455;SDS011;15682;56.742;38.866;2023-02-28T10:31:22;10.5;;;2.7;;
28455;SDS011;15682;56.742;38.866;2023-02-28T10:33:23;4.6;;;2.7;;
28455;SDS011;15682;56.742;38.866;2023-02-28T10:35:22;10.5;;;3.2;;
28455;SDS011;15682;56.742;38.866;2023-02-28T10:37:21;33.4;;;6.2;;
28455;SDS011;15682;56.742;38.866;2023-02-28T10:41:29;9.1;;;3.1;;
28455;SDS011;15682;56.742;38.866;2023-02-28T10:43:21;6.7;;;3.0;;
28455;SDS011;15682;56.742;38.866;2023-02-28T10:45:21;6.4;;;3.0;;
28455;SDS011;15682;56.742;38.866;2023-02-28T10:47:21;10.3;;;2.9;;
28455;SDS011;15682;56.742;38.866;2023-02-28T10:49:22;5.1;;;2.5;;
28455;SDS011;15682;56.742;38.866;2023-02-28T10:51:21;4.5;;;2.6;;
28455;SDS011;15682;56.742;38.866;2023-02-28T10:53:26;6.0;;;2.7;;
28455;SDS011;15682;56.742;38.866;2023-02-28T10:55:21;8.5;;;2.8;;
28455;SDS011;15682;56.742;38.866;2023-02-28T10:57:20;7.9;;;2.9;;
28455;SDS011;15682;56.742;38.866;2023-02-28T10:59:24;5.8;;;2.4;;
28455;SDS011;15682;56.742;38.866;2023-02-28T11:01:20;6.5;;;2.8;;
28455;SDS011;15682;56.742;38.866;2023-02-28T11:03:23;5.9;;;2.5;;
28455;SDS011;15682;56.742;38.866;2023-02-28T11:05:28;3.8;;;2.3;;
28455;SDS011;15682;56.742;38.866;2023-02-28T11:07:20;4.3;;;2.3;;
28455;SDS011;15682;56.742;38.866;2023-02-28T11:09:21;4.1;;;2.4;;
28455;SDS011;15682;56.742;38.866;2023-02-28T11:11:19;4.9;;;2.4;;
28455;SDS011;15682;56.742;38.866;2023-02-28T11:13:19;7.9;;;2.9;;
28455;SDS011;15682;56.742;38.866;2023-02-28T11:15:21;9.4;;;2.5;;
28455;SDS011;15682;56.742;38.866;2023-02-28T11:17:20;4.8;;;2.6;;
28455;SDS011;15682;56.742;38.866;2023-02-28T11:19:19;5.7;;;2.3;;
28455;SDS011;15682;56.742;38.866;2023-02-28T11:21:21;6.2;;;2.7;;
28455;SDS011;15682;56.742;38.866;2023-02-28T11:23:18;5.1;;;2.6;;
28455;SDS011;15682;56.742;38.866;2023-02-28T11:25:20;5.4;;;2.4;;
28455;SDS011;15682;56.742;38.866;2023-02-28T11:27:24;6.4;;;2.5;;
28455;SDS011;15682;56.742;38.866;2023-02-28T11:29:19;5.9;;;2.1;;
28455;SDS011;15682;56.742;38.866;2023-02-28T11:31:18;9.8;;;2.8;;
28455;SDS011;15682;56.742;38.866;2023-02-28T11:33:20;5.8;;;2.3;;
28455;SDS011;15682;56.742;38.866;2023-02-28T11:35:18;4.8;;;1.9;;
28455;SDS011;15682;56.742;38.866;2023-02-28T11:37:18;5.5;;;2.5;;
28455;SDS011;15682;56.742;38.866;2023-02-28T11:39:17;3.9;;;2.2;;
28455;SDS011;15682;56.742;38.866;2023-02-28T11:41:22;5.0;;;2.1;;
28455;SDS011;15682;56.742;38.866;2023-02-28T11:43:20;3.6;;;2.2;;
28455;SDS011;15682;56.742;38.866;2023-02-28T11:45:21;4.4;;;2.3;;
28455;SDS011;15682;56.742;38.866;2023-02-28T11:47:17;6.4;;;2.2;;
28455;SDS011;15682;56.742;38.866;2023-02-28T11:49:21;5.3;;;2.3;;
28455;SDS011;15682;56.742;38.866;2023-02-28T11:51:18;4.0;;;2.2;;
28455;SDS011;15682;56.742;38.866;2023-02-28T11:53:19;4.3;;;2.4;;
28455;SDS011;15682;56.742;38.866;2023-02-28T11:55:17;3.4;;;2.1;;
28455;SDS011;15682;56.742;38.866;2023-02-28T11:57:19;3.9;;;2.3;;
28455;SDS011;15682;56.742;38.866;2023-02-28T11:59:22;4.1;;;2.1;;
28455;SDS011;15682;56.742;38.866;2023-02-28T12:01:19;3.9;;;2.1;;
28455;SDS011;15682;56.742;38.866;2023-02-28T12:03:17;3.5;;;2.0;;
28455;SDS011;15682;56.742;38.866;2023-02-28T12:05:19;10.0;;;3.0;;
28455;SDS011;15682;56.742;38.866;2023-02-28T12:07:15;3.4;;;2.1;;
28455;SDS011;15682;56.742;38.866;2023-02-28T12:09:21;4.1;;;2.4;;
28455;SDS011;15682;56.742;38.866;2023-02-28T12:11:17;8.5;;;2.1;;
28455;SDS011;15682;56.742;38.866;2023-02-28T12:13:18;5.7;;;2.3;;
28455;SDS011;15682;56.742;38.866;2023-02-28T12:15:17;3.0;;;1.9;;
28455;SDS011;15682;56.742;38.866;2023-02-28T12:17:18;3.8;;;1.9;;
28455;SDS011;15682;56.742;38.866;2023-02-28T12:19:17;3.0;;;2.0;;
28455;SDS011;15682;56.742;38.866;2023-02-28T12:21:17;4.9;;;2.2;;